Weather at Mayfield Ranch Airport [CLOSED]

Public forecast

Using degrees Fahrenheit for public forecast. Weather courtesy of forecast.io.

Closest aviation weather report (METAR) to Mayfield Ranch Airport

Closest report is Sonora Municipal Airport, 6.6 nm (12.2 km) ENE. Retrieved 2022/07/04 13:55 UTC (11 minutes ago):

KSOA 041355Z AUTO 15011KT 10SM 25/19 A3011 RMK AO2

Closest aviation forecast (TAF) to Mayfield Ranch Airport

Closest forecast is Sonora Municipal Airport, 6.6 nm (12.2 km) ENE. Retrieved 2022/07/04 12:34 UTC (2 hours ago):

TAF KSOA 041132Z 0412/0512 16009KT P6SM SCT250 FM041500 17012G20KT P6SM FEW250